createdAt,value
2022-12-11T00:01:56.997Z,87.01
2022-12-11T00:05:56.491Z,86.88
2022-12-11T00:09:56.110Z,86.65
2022-12-11T00:13:55.476Z,86.35
2022-12-11T00:17:54.667Z,86.49
2022-12-11T00:21:54.144Z,86.66
2022-12-11T00:25:53.406Z,86.63
2022-12-11T00:30:06.672Z,86.99
2022-12-11T00:34:06.091Z,87.12
2022-12-11T00:38:05.008Z,87.15
2022-12-11T00:42:17.947Z,87.22
2022-12-11T00:46:17.146Z,87.49
2022-12-11T00:50:16.424Z,87.67
2022-12-11T00:54:15.714Z,87.29
2022-12-11T00:58:15.257Z,86.99
2022-12-11T01:02:14.221Z,87.59
2022-12-11T01:06:15.216Z,88.35
2022-12-11T01:10:27.556Z,88.45
2022-12-11T01:14:27.599Z,88.87
2022-12-11T01:18:26.619Z,88.98
2022-12-11T01:22:25.725Z,89.09
2022-12-11T01:26:25.094Z,89.26
2022-12-11T01:30:25.278Z,89.28
2022-12-11T01:34:24.931Z,89.85
2022-12-11T01:38:24.110Z,89.75
2022-12-11T01:42:25.546Z,89.63
2022-12-11T01:46:25.638Z,89.52
2022-12-11T01:50:24.948Z,89.25
2022-12-11T01:54:24.364Z,89.27
2022-12-11T01:58:25.887Z,89.15
2022-12-11T02:02:28.249Z,89.07
2022-12-11T02:06:31.647Z,89.25
2022-12-11T02:10:49.303Z,89.25
2022-12-11T02:15:15.045Z,89.22
2022-12-11T02:19:14.129Z,89.33
2022-12-11T02:23:13.016Z,89.12
2022-12-11T02:27:23.727Z,88.99
2022-12-11T02:31:41.676Z,89.30
2022-12-11T02:35:42.902Z,89.12
2022-12-11T02:39:44.788Z,88.91
2022-12-11T02:43:46.672Z,88.87
2022-12-11T02:47:47.795Z,88.89
2022-12-11T02:51:47.327Z,88.95
2022-12-11T02:55:48.357Z,89.15
2022-12-11T02:59:48.049Z,88.96
2022-12-11T03:03:47.548Z,88.67
2022-12-11T03:07:46.524Z,88.82
2022-12-11T03:11:46.077Z,88.66
2022-12-11T03:15:44.988Z,88.75
2022-12-11T03:19:48.424Z,88.61
2022-12-11T03:23:51.652Z,88.45
2022-12-11T03:27:58.267Z,88.34
2022-12-11T03:32:20.126Z,88.64
2022-12-11T03:36:22.751Z,88.59
2022-12-11T03:40:37.230Z,88.60
2022-12-11T03:44:37.145Z,88.56
2022-12-11T03:48:38.289Z,88.49
2022-12-11T03:52:42.565Z,88.12
2022-12-11T03:57:04.727Z,88.36
2022-12-11T04:00:22.511Z,88.08
2022-12-11T04:04:21.985Z,88.04
2022-12-11T04:08:21.467Z,88.29
2022-12-11T04:12:20.694Z,88.57
2022-12-11T04:16:19.983Z,88.78
2022-12-11T04:20:42.680Z,88.98
2022-12-11T04:24:16.405Z,89.20
2022-12-11T04:27:55.546Z,89.21
2022-12-11T04:31:54.408Z,89.16
2022-12-11T04:35:53.663Z,89.33
2022-12-11T04:39:52.508Z,89.39
2022-12-11T04:43:52.087Z,89.22
2022-12-11T04:47:51.407Z,89.12
2022-12-11T04:51:50.649Z,89.13
2022-12-11T04:55:49.515Z,89.24
2022-12-11T04:59:48.948Z,89.09
2022-12-11T05:04:01.853Z,89.21
2022-12-11T05:08:01.123Z,90.19
2022-12-11T05:12:00.318Z,90.88
2022-12-11T05:16:00.605Z,91.07
2022-12-11T05:19:59.928Z,90.34
2022-12-11T05:23:59.284Z,89.37
2022-12-11T05:27:58.408Z,89.02
2022-12-11T05:31:57.706Z,88.47
2022-12-11T05:35:56.870Z,88.07
2022-12-11T05:39:55.971Z,87.71
2022-12-11T05:43:55.386Z,87.60
2022-12-11T05:47:54.965Z,86.94
2022-12-11T05:51:53.926Z,86.45
2022-12-11T05:56:08.913Z,86.32
2022-12-11T06:00:08.449Z,86.31
2022-12-11T06:04:09.153Z,86.07
2022-12-11T06:08:08.401Z,86.10
2022-12-11T06:12:07.845Z,85.68
2022-12-11T06:16:07.963Z,85.65
2022-12-11T06:20:08.169Z,85.09
2022-12-11T06:23:47.231Z,85.47
2022-12-11T06:27:46.507Z,84.86
2022-12-11T06:31:45.436Z,84.70
2022-12-11T06:35:44.705Z,84.72
2022-12-11T06:39:43.905Z,84.50
2022-12-11T06:43:43.249Z,84.22
2022-12-11T06:47:42.546Z,84.26
2022-12-11T06:51:41.775Z,84.32
2022-12-11T06:55:41.850Z,83.94
2022-12-11T06:59:41.327Z,83.96
2022-12-11T07:03:40.447Z,84.42
2022-12-11T07:07:39.864Z,84.20
2022-12-11T07:11:38.679Z,84.20
2022-12-11T07:15:52.089Z,83.62
2022-12-11T07:19:51.433Z,83.74
2022-12-11T07:23:50.967Z,83.05
2022-12-11T07:27:50.046Z,82.10
2022-12-11T07:31:49.605Z,82.21
2022-12-11T07:35:48.795Z,81.91
2022-12-11T07:39:49.748Z,82.14
2022-12-11T07:43:49.909Z,82.01
2022-12-11T07:47:48.911Z,82.05
2022-12-11T07:51:48.754Z,82.68
2022-12-11T07:55:48.104Z,82.05
2022-12-11T07:59:47.418Z,82.20
2022-12-11T08:03:47.482Z,81.70
2022-12-11T08:07:46.391Z,81.52
2022-12-11T08:11:45.920Z,80.98
2022-12-11T08:15:44.786Z,81.69
2022-12-11T08:19:44.104Z,81.54
2022-12-11T08:23:44.069Z,82.02
2022-12-11T08:27:43.444Z,81.45
2022-12-11T08:31:42.849Z,81.35
2022-12-11T08:35:44.116Z,81.85
2022-12-11T08:40:02.239Z,81.34
2022-12-11T08:43:21.094Z,81.46
2022-12-11T08:47:34.110Z,81.34
2022-12-11T08:51:33.710Z,81.91
2022-12-11T08:55:33.149Z,82.62
2022-12-11T08:59:32.565Z,81.74
2022-12-11T09:03:31.705Z,81.36
2022-12-11T09:07:31.135Z,81.45
2022-12-11T09:11:44.635Z,81.62
2022-12-11T09:15:43.640Z,81.88
2022-12-11T09:19:42.942Z,81.75
2022-12-11T09:23:42.973Z,82.73
2022-12-11T09:27:42.077Z,83.18
2022-12-11T09:31:41.484Z,82.97
2022-12-11T09:35:40.873Z,82.56
2022-12-11T09:39:53.973Z,82.53
2022-12-11T09:43:56.662Z,82.34
2022-12-11T09:47:56.963Z,82.34
2022-12-11T09:52:19.484Z,82.10
2022-12-11T09:56:25.280Z,81.86
2022-12-11T10:00:43.269Z,82.11
2022-12-11T10:04:42.029Z,81.57
2022-12-11T10:08:58.374Z,81.65
2022-12-11T10:12:57.744Z,81.45
2022-12-11T10:17:11.550Z,80.96
2022-12-11T10:21:35.720Z,80.85
2022-12-11T10:25:11.646Z,81.47
2022-12-11T10:29:15.063Z,80.71
2022-12-11T10:33:19.879Z,80.94
2022-12-11T10:37:18.803Z,80.89
2022-12-11T10:41:21.096Z,80.45
2022-12-11T10:45:20.632Z,80.78
2022-12-11T10:49:22.157Z,81.34
2022-12-11T10:53:22.024Z,81.55
2022-12-11T10:57:26.551Z,80.96
2022-12-11T11:01:27.211Z,80.99
2022-12-11T11:05:35.005Z,81.11
2022-12-11T11:09:36.770Z,79.53
2022-12-11T11:13:36.296Z,79.79
2022-12-11T11:17:52.754Z,80.03
2022-12-11T11:21:55.308Z,80.20
2022-12-11T11:25:58.957Z,80.20
2022-12-11T11:30:00.332Z,80.37
2022-12-11T11:33:59.487Z,80.23
2022-12-11T11:38:02.688Z,80.35
2022-12-11T11:42:20.372Z,79.59
2022-12-11T11:46:23.211Z,80.06
2022-12-11T11:50:28.509Z,80.18
2022-12-11T11:54:35.887Z,79.97
2022-12-11T11:58:37.535Z,80.25
2022-12-11T12:02:37.723Z,80.20
2022-12-11T12:07:06.969Z,80.35
2022-12-11T12:10:24.423Z,80.26
2022-12-11T12:22:30.053Z,80.67
2022-12-11T12:27:01.328Z,80.12
2022-12-11T12:31:06.317Z,80.15
2022-12-11T12:35:24.417Z,80.32
2022-12-11T12:39:42.327Z,79.79
2022-12-11T12:43:44.961Z,79.99
2022-12-11T12:47:58.276Z,79.83
2022-12-11T12:51:58.139Z,79.55
2022-12-11T12:55:57.810Z,80.06
2022-12-11T12:59:56.929Z,80.33
2022-12-11T13:03:56.309Z,80.01
2022-12-11T13:07:57.807Z,80.53
2022-12-11T13:12:00.353Z,80.76
2022-12-11T13:16:16.448Z,80.59
2022-12-11T13:20:18.247Z,80.37
2022-12-11T13:24:25.843Z,80.26
2022-12-11T13:28:31.469Z,80.27
2022-12-11T13:32:31.291Z,80.59
2022-12-11T13:36:35.433Z,80.90
2022-12-11T13:40:38.969Z,80.79
2022-12-11T13:44:42.082Z,80.50
2022-12-11T13:48:46.271Z,82.23
2022-12-11T13:52:53.622Z,82.61
2022-12-11T13:57:06.418Z,79.93
2022-12-11T14:01:14.995Z,79.74
2022-12-11T14:05:15.626Z,80.12
2022-12-11T14:09:18.125Z,80.31
2022-12-11T14:13:25.652Z,79.68
2022-12-11T14:17:27.210Z,80.03
2022-12-11T14:21:26.786Z,80.04
2022-12-11T14:25:27.728Z,81.01
2022-12-11T14:29:30.041Z,81.04
2022-12-11T14:33:32.789Z,79.89
2022-12-11T14:37:34.309Z,79.77
2022-12-11T14:41:59.413Z,80.03
2022-12-11T14:46:02.421Z,80.31
2022-12-11T14:50:01.628Z,79.93
2022-12-11T14:54:01.102Z,80.07
2022-12-11T14:58:21.476Z,80.12
2022-12-11T15:02:29.949Z,80.49
2022-12-11T15:06:30.860Z,80.45
2022-12-11T15:10:36.429Z,80.76
2022-12-11T15:14:35.301Z,80.63
2022-12-11T15:18:36.335Z,80.53
2022-12-11T15:22:35.912Z,80.32
2022-12-11T15:26:39.302Z,79.45
2022-12-11T15:30:38.675Z,79.52
2022-12-11T15:34:45.749Z,79.02
2022-12-11T15:38:45.403Z,78.95
2022-12-11T15:42:45.041Z,78.87
2022-12-11T15:46:44.868Z,78.56
2022-12-11T15:50:44.447Z,78.43
2022-12-11T15:55:02.522Z,78.17
2022-12-11T15:58:23.327Z,78.30
2022-12-11T16:02:36.236Z,78.17
2022-12-11T16:06:37.203Z,77.51
2022-12-11T16:10:36.645Z,77.34
2022-12-11T16:14:50.355Z,77.20
2022-12-11T16:18:50.207Z,77.42
2022-12-11T16:22:49.951Z,77.52
2022-12-11T16:26:49.795Z,77.43
2022-12-11T16:30:49.006Z,77.24
2022-12-11T16:34:48.318Z,77.32
2022-12-11T16:38:53.507Z,76.78
2022-12-11T16:42:54.329Z,76.86
2022-12-11T16:46:54.344Z,77.27
2022-12-11T16:51:12.800Z,76.78
2022-12-11T16:54:31.369Z,76.95
2022-12-11T16:58:31.117Z,77.15
2022-12-11T17:02:30.823Z,77.13
2022-12-11T17:06:31.105Z,77.29
2022-12-11T17:10:30.783Z,77.43
2022-12-11T17:14:30.243Z,77.89
2022-12-11T17:18:30.051Z,77.42
2022-12-11T17:22:29.688Z,77.37
2022-12-11T17:26:29.796Z,76.95
2022-12-11T17:30:28.903Z,75.91
2022-12-11T17:34:31.835Z,76.45
2022-12-11T17:38:34.229Z,76.34
2022-12-11T17:42:33.851Z,76.51
2022-12-11T17:46:33.430Z,76.60
2022-12-11T17:50:32.695Z,77.84
2022-12-11T17:58:58.964Z,76.28
2022-12-11T18:03:02.183Z,75.86
2022-12-11T18:07:02.694Z,75.96
2022-12-11T18:11:10.872Z,75.87
2022-12-11T18:15:11.165Z,75.95
2022-12-11T18:19:10.211Z,76.37
2022-12-11T18:23:09.994Z,76.25
2022-12-11T18:27:11.359Z,75.46
2022-12-11T18:31:11.473Z,76.10
2022-12-11T18:35:11.788Z,75.80
2022-12-11T18:39:11.531Z,75.76
2022-12-11T18:43:11.348Z,75.69
2022-12-11T18:47:10.670Z,75.78
2022-12-11T18:51:11.480Z,76.54
2022-12-11T18:55:10.876Z,76.76
2022-12-11T18:59:24.656Z,76.09
2022-12-11T19:03:24.006Z,75.48
2022-12-11T19:07:23.988Z,76.12
2022-12-11T19:11:25.063Z,76.40
2022-12-11T19:15:24.778Z,76.67
2022-12-11T19:19:24.725Z,76.91
2022-12-11T19:23:24.004Z,76.69
2022-12-11T19:27:23.402Z,76.99
2022-12-11T19:31:23.451Z,77.05
2022-12-11T19:35:23.002Z,76.84
2022-12-11T19:39:22.185Z,77.29
2022-12-11T19:43:21.324Z,76.40
2022-12-11T19:48:37.506Z,76.18
2022-12-11T19:52:41.517Z,76.94
2022-12-11T19:56:44.232Z,76.95
2022-12-11T20:00:44.145Z,77.04
2022-12-11T20:04:44.089Z,77.28
2022-12-11T20:08:43.700Z,77.01
2022-12-11T20:12:40.808Z,76.99
2022-12-11T20:17:12.116Z,77.39
2022-12-11T20:21:14.735Z,77.11
2022-12-11T20:25:14.328Z,76.95
2022-12-11T20:29:14.816Z,76.96
2022-12-11T20:33:14.819Z,76.59
2022-12-11T20:37:14.117Z,76.67
2022-12-11T20:41:15.285Z,77.38
2022-12-11T20:45:15.174Z,77.26
2022-12-11T20:49:14.309Z,76.73
2022-12-11T20:53:13.390Z,77.09
2022-12-11T20:57:15.334Z,77.13
2022-12-11T21:01:16.268Z,77.27
2022-12-11T21:05:30.151Z,77.57
2022-12-11T21:09:29.759Z,77.44
2022-12-11T21:13:29.426Z,76.64
2022-12-11T21:17:29.105Z,76.68
2022-12-11T21:21:31.236Z,76.58
2022-12-11T21:25:31.424Z,77.13
2022-12-11T21:29:31.415Z,76.50
2022-12-11T21:33:33.382Z,76.27
2022-12-11T21:37:34.405Z,76.20
2022-12-11T21:41:34.502Z,76.85
2022-12-11T21:46:00.608Z,77.41
2022-12-11T21:49:56.896Z,77.44
2022-12-11T21:53:56.658Z,76.69
2022-12-11T21:57:56.319Z,76.28
2022-12-11T22:01:55.837Z,76.16
2022-12-11T22:05:55.435Z,76.29
2022-12-11T22:09:54.622Z,75.85
2022-12-11T22:13:54.303Z,76.07
2022-12-11T22:17:53.685Z,75.74
2022-12-11T22:21:52.997Z,75.70
2022-12-11T22:25:53.152Z,75.53
2022-12-11T22:30:06.834Z,75.54
2022-12-11T22:34:06.110Z,75.89
2022-12-11T22:38:05.863Z,76.26
2022-12-11T22:42:05.486Z,75.83
2022-12-11T22:46:05.361Z,75.64
2022-12-11T22:50:05.249Z,75.52
2022-12-11T22:54:04.472Z,76.10
2022-12-11T22:58:04.035Z,75.55
2022-12-11T23:02:17.356Z,75.31
2022-12-11T23:06:17.879Z,74.61
2022-12-11T23:10:17.647Z,74.04
2022-12-11T23:13:55.167Z,73.93
2022-12-11T23:17:54.384Z,74.99
2022-12-11T23:21:53.608Z,75.49
2022-12-11T23:25:53.392Z,75.27
2022-12-11T23:29:51.948Z,75.32
2022-12-11T23:33:51.748Z,75.23
2022-12-11T23:37:50.548Z,74.90
2022-12-11T23:41:49.572Z,74.43
2022-12-11T23:45:48.485Z,73.22
2022-12-11T23:49:47.526Z,74.08
2022-12-11T23:53:46.636Z,74.70
2022-12-11T23:57:45.765Z,74.33
